RO-0004 weather

Ineu "King's Land" field
Bistriţa-Năsăud, Romania

Public forecast

Using degrees Celsius for public forecast. Weather courtesy of forecast.io.

Closest aviation weather report (METAR) to Ineu "King's Land" field

Closest report is Oradea International Airport, 8.7 nm (16.1 km) WSW. Retrieved 2020/07/10 10:00 UTC (25 minutes ago):

LROD 101000Z 20008KT CAVOK 29/14 Q1018

Closest aviation forecast (TAF) to Ineu "King's Land" field

Forecast is more than 12 hours old.

Closest forecast is Oradea International Airport, 8.7 nm (16.1 km) WSW. Retrieved 2010/08/31 20:30 UTC (10 years ago):

TAF LROD 312030Z 3121/0203 CNL